sensor_id;sensor_type;location;lat;lon;timestamp;pressure;altitude;pressure_sealevel;temperature;humidity
3917;BME280;1973;50.518;7.318;2023-05-03T00:00:05;102093.81;;;6.07;100.00
3917;BME280;1973;50.518;7.318;2023-05-03T00:02:34;102096.53;;;6.07;100.00
3917;BME280;1973;50.518;7.318;2023-05-03T00:05:05;102085.06;;;6.03;100.00
3917;BME280;1973;50.518;7.318;2023-05-03T00:07:35;102079.91;;;6.00;100.00
3917;BME280;1973;50.518;7.318;2023-05-03T00:10:01;102079.34;;;5.97;100.00
3917;BME280;1973;50.518;7.318;2023-05-03T00:12:28;102076.38;;;5.90;100.00
3917;BME280;1973;50.518;7.318;2023-05-03T00:14:55;102085.13;;;5.84;100.00
3917;BME280;1973;50.518;7.318;2023-05-03T00:17:21;102075.69;;;5.78;100.00
3917;BME280;1973;50.518;7.318;2023-05-03T00:19:48;102081.47;;;5.75;100.00
3917;BME280;1973;50.518;7.318;2023-05-03T00:22:14;102082.63;;;5.73;100.00
3917;BME280;1973;50.518;7.318;2023-05-03T00:24:41;102071.41;;;5.76;100.00
3917;BME280;1973;50.518;7.318;2023-05-03T00:27:07;102068.50;;;5.77;100.00
3917;BME280;1973;50.518;7.318;2023-05-03T00:29:34;102073.97;;;5.77;100.00
3917;BME280;1973;50.518;7.318;2023-05-03T00:32:00;102072.88;;;5.70;100.00
3917;BME280;1973;50.518;7.318;2023-05-03T00:34:27;102066.84;;;5.67;100.00
3917;BME280;1973;50.518;7.318;2023-05-03T00:36:54;102067.03;;;5.65;100.00
3917;BME280;1973;50.518;7.318;2023-05-03T00:39:20;102068.16;;;5.63;100.00
3917;BME280;1973;50.518;7.318;2023-05-03T00:41:47;102068.34;;;5.61;100.00
3917;BME280;1973;50.518;7.318;2023-05-03T00:44:13;102066.06;;;5.57;100.00
3917;BME280;1973;50.518;7.318;2023-05-03T00:46:40;102065.31;;;5.55;100.00
3917;BME280;1973;50.518;7.318;2023-05-03T00:49:06;102066.34;;;5.54;100.00
3917;BME280;1973;50.518;7.318;2023-05-03T00:51:33;102075.56;;;5.53;100.00
3917;BME280;1973;50.518;7.318;2023-05-03T00:53:59;102071.09;;;5.52;100.00
3917;BME280;1973;50.518;7.318;2023-05-03T00:56:26;102072.97;;;5.51;100.00
3917;BME280;1973;50.518;7.318;2023-05-03T00:58:56;102072.41;;;5.48;100.00
3917;BME280;1973;50.518;7.318;2023-05-03T01:01:23;102071.53;;;5.47;100.00
3917;BME280;1973;50.518;7.318;2023-05-03T01:03:50;102069.13;;;5.44;100.00
3917;BME280;1973;50.518;7.318;2023-05-03T01:09:16;102080.41;;;5.31;100.00
3917;BME280;1973;50.518;7.318;2023-05-03T01:17:20;102074.56;;;5.17;100.00
3917;BME280;1973;50.518;7.318;2023-05-03T01:19:54;102075.72;;;5.14;100.00
3917;BME280;1973;50.518;7.318;2023-05-03T01:25:05;102085.75;;;5.14;100.00
3917;BME280;1973;50.518;7.318;2023-05-03T01:27:33;102087.66;;;5.13;100.00
3917;BME280;1973;50.518;7.318;2023-05-03T01:29:59;102088.50;;;5.14;100.00
3917;BME280;1973;50.518;7.318;2023-05-03T01:38:02;102085.66;;;5.06;100.00
3917;BME280;1973;50.518;7.318;2023-05-03T01:40:31;102087.53;;;5.05;100.00
3917;BME280;1973;50.518;7.318;2023-05-03T01:43:00;102089.53;;;5.03;100.00
3917;BME280;1973;50.518;7.318;2023-05-03T01:45:28;102091.88;;;4.98;100.00
3917;BME280;1973;50.518;7.318;2023-05-03T01:47:55;102091.13;;;4.96;100.00
3917;BME280;1973;50.518;7.318;2023-05-03T01:50:22;102100.47;;;4.94;100.00
3917;BME280;1973;50.518;7.318;2023-05-03T01:52:49;102096.19;;;4.91;100.00
3917;BME280;1973;50.518;7.318;2023-05-03T01:55:17;102102.78;;;4.88;100.00
3917;BME280;1973;50.518;7.318;2023-05-03T01:57:44;102108.53;;;4.85;100.00
3917;BME280;1973;50.518;7.318;2023-05-03T02:00:11;102105.25;;;4.82;100.00
3917;BME280;1973;50.518;7.318;2023-05-03T02:02:37;102103.81;;;4.78;100.00
3917;BME280;1973;50.518;7.318;2023-05-03T02:05:04;102102.25;;;4.75;100.00
3917;BME280;1973;50.518;7.318;2023-05-03T02:07:31;102101.69;;;4.72;100.00
3917;BME280;1973;50.518;7.318;2023-05-03T02:09:57;102106.56;;;4.68;100.00
3917;BME280;1973;50.518;7.318;2023-05-03T02:12:23;102103.25;;;4.65;100.00
3917;BME280;1973;50.518;7.318;2023-05-03T02:14:50;102105.41;;;4.61;100.00
3917;BME280;1973;50.518;7.318;2023-05-03T02:17:17;102113.72;;;4.60;100.00
3917;BME280;1973;50.518;7.318;2023-05-03T02:19:46;102112.28;;;4.56;100.00
3917;BME280;1973;50.518;7.318;2023-05-03T02:22:12;102108.88;;;4.54;100.00
3917;BME280;1973;50.518;7.318;2023-05-03T02:24:38;102115.63;;;4.50;100.00
3917;BME280;1973;50.518;7.318;2023-05-03T02:27:05;102111.44;;;4.46;100.00
3917;BME280;1973;50.518;7.318;2023-05-03T02:29:32;102118.06;;;4.43;100.00
3917;BME280;1973;50.518;7.318;2023-05-03T02:31:58;102116.16;;;4.43;100.00
3917;BME280;1973;50.518;7.318;2023-05-03T02:34:25;102118.06;;;4.43;100.00
3917;BME280;1973;50.518;7.318;2023-05-03T02:36:52;102115.34;;;4.43;100.00
3917;BME280;1973;50.518;7.318;2023-05-03T02:39:18;102106.28;;;4.43;100.00
3917;BME280;1973;50.518;7.318;2023-05-03T02:41:45;102118.06;;;4.43;100.00
3917;BME280;1973;50.518;7.318;2023-05-03T02:44:11;102105.56;;;4.40;100.00
3917;BME280;1973;50.518;7.318;2023-05-03T02:46:38;102109.31;;;4.39;100.00
3917;BME280;1973;50.518;7.318;2023-05-03T02:49:06;102108.56;;;4.37;100.00
3917;BME280;1973;50.518;7.318;2023-05-03T02:51:33;102105.13;;;4.35;100.00
3917;BME280;1973;50.518;7.318;2023-05-03T02:54:00;102110.84;;;4.32;100.00
3917;BME280;1973;50.518;7.318;2023-05-03T02:56:27;102118.19;;;4.32;100.00
3917;BME280;1973;50.518;7.318;2023-05-03T02:58:54;102112.88;;;4.30;100.00
3917;BME280;1973;50.518;7.318;2023-05-03T03:01:20;102120.34;;;4.28;100.00
3917;BME280;1973;50.518;7.318;2023-05-03T03:03:47;102120.59;;;4.25;100.00
3917;BME280;1973;50.518;7.318;2023-05-03T03:06:13;102118.03;;;4.24;100.00
3917;BME280;1973;50.518;7.318;2023-05-03T03:08:40;102115.44;;;4.22;100.00
3917;BME280;1973;50.518;7.318;2023-05-03T03:11:06;102123.78;;;4.21;100.00
3917;BME280;1973;50.518;7.318;2023-05-03T03:13:33;102118.59;;;4.18;100.00
3917;BME280;1973;50.518;7.318;2023-05-03T03:16:06;102119.03;;;4.13;100.00
3917;BME280;1973;50.518;7.318;2023-05-03T03:18:32;102126.06;;;4.06;100.00
3917;BME280;1973;50.518;7.318;2023-05-03T03:21:02;102119.75;;;4.06;100.00
3917;BME280;1973;50.518;7.318;2023-05-03T03:23:29;102119.88;;;4.04;100.00
3917;BME280;1973;50.518;7.318;2023-05-03T03:25:55;102122.59;;;4.04;100.00
3917;BME280;1973;50.518;7.318;2023-05-03T03:28:22;102128.31;;;4.01;100.00
3917;BME280;1973;50.518;7.318;2023-05-03T03:30:48;102120.28;;;4.00;100.00
3917;BME280;1973;50.518;7.318;2023-05-03T03:33:15;102115.97;;;3.97;100.00
3917;BME280;1973;50.518;7.318;2023-05-03T03:35:41;102114.25;;;3.96;100.00
3917;BME280;1973;50.518;7.318;2023-05-03T03:38:08;102114.53;;;3.93;100.00
3917;BME280;1973;50.518;7.318;2023-05-03T03:40:34;102108.22;;;3.92;100.00
3917;BME280;1973;50.518;7.318;2023-05-03T03:43:01;102109.38;;;3.90;100.00
3917;BME280;1973;50.518;7.318;2023-05-03T03:45:27;102113.97;;;3.89;100.00
3917;BME280;1973;50.518;7.318;2023-05-03T03:47:54;102112.09;;;3.90;100.00
3917;BME280;1973;50.518;7.318;2023-05-03T03:50:24;102116.56;;;3.91;100.00
3917;BME280;1973;50.518;7.318;2023-05-03T03:52:51;102115.69;;;3.90;100.00
3917;BME280;1973;50.518;7.318;2023-05-03T03:55:17;102118.25;;;3.92;100.00
3917;BME280;1973;50.518;7.318;2023-05-03T03:57:44;102115.53;;;3.92;100.00
3917;BME280;1973;50.518;7.318;2023-05-03T04:00:11;102114.81;;;3.90;100.00
3917;BME280;1973;50.518;7.318;2023-05-03T04:02:38;102113.09;;;3.89;100.00
3917;BME280;1973;50.518;7.318;2023-05-03T04:05:05;102111.66;;;3.85;100.00
3917;BME280;1973;50.518;7.318;2023-05-03T04:07:31;102115.66;;;3.81;100.00
3917;BME280;1973;50.518;7.318;2023-05-03T04:09:58;102108.78;;;3.77;100.00
3917;BME280;1973;50.518;7.318;2023-05-03T04:12:24;102103.59;;;3.74;100.00
3917;BME280;1973;50.518;7.318;2023-05-03T04:14:51;102112.78;;;3.73;100.00
3917;BME280;1973;50.518;7.318;2023-05-03T04:17:17;102105.72;;;3.70;100.00
3917;BME280;1973;50.518;7.318;2023-05-03T04:19:43;102122.50;;;3.66;100.00
3917;BME280;1973;50.518;7.318;2023-05-03T04:22:10;102114.47;;;3.64;100.00
3917;BME280;1973;50.518;7.318;2023-05-03T04:24:36;102116.44;;;3.62;100.00
3917;BME280;1973;50.518;7.318;2023-05-03T04:27:05;102108.44;;;3.61;100.00
3917;BME280;1973;50.518;7.318;2023-05-03T04:29:33;102112.16;;;3.60;100.00
3917;BME280;1973;50.518;7.318;2023-05-03T04:32:00;102105.13;;;3.57;100.00
3917;BME280;1973;50.518;7.318;2023-05-03T04:34:27;102115.16;;;3.57;100.00
3917;BME280;1973;50.518;7.318;2023-05-03T04:36:55;102107.97;;;3.56;100.00
3917;BME280;1973;50.518;7.318;2023-05-03T04:39:22;102110.69;;;3.56;100.00
3917;BME280;1973;50.518;7.318;2023-05-03T04:41:49;102107.28;;;3.54;100.00
3917;BME280;1973;50.518;7.318;2023-05-03T04:44:15;102103.56;;;3.55;100.00
3917;BME280;1973;50.518;7.318;2023-05-03T04:46:42;102096.09;;;3.57;100.00
3917;BME280;1973;50.518;7.318;2023-05-03T04:49:08;102092.50;;;3.56;100.00
3917;BME280;1973;50.518;7.318;2023-05-03T04:51:35;102086.94;;;3.58;100.00
3917;BME280;1973;50.518;7.318;2023-05-03T04:54:01;102092.97;;;3.61;100.00
3917;BME280;1973;50.518;7.318;2023-05-03T04:56:28;102079.19;;;3.63;100.00
3917;BME280;1973;50.518;7.318;2023-05-03T04:58:54;102075.50;;;3.64;100.00
3917;BME280;1973;50.518;7.318;2023-05-03T05:01:21;102086.09;;;3.67;100.00
3917;BME280;1973;50.518;7.318;2023-05-03T05:03:51;102090.41;;;3.69;100.00
3917;BME280;1973;50.518;7.318;2023-05-03T05:06:19;102094.13;;;3.68;100.00
3917;BME280;1973;50.518;7.318;2023-05-03T05:08:45;102108.34;;;3.72;100.00
3917;BME280;1973;50.518;7.318;2023-05-03T05:11:12;102111.63;;;3.75;100.00
3917;BME280;1973;50.518;7.318;2023-05-03T05:13:39;102116.22;;;3.75;100.00
3917;BME280;1973;50.518;7.318;2023-05-03T05:16:06;102119.69;;;3.77;100.00
3917;BME280;1973;50.518;7.318;2023-05-03T05:18:32;102115.94;;;3.78;100.00
3917;BME280;1973;50.518;7.318;2023-05-03T05:21:00;102119.41;;;3.80;100.00
3917;BME280;1973;50.518;7.318;2023-05-03T05:23:26;102125.56;;;3.82;100.00
3917;BME280;1973;50.518;7.318;2023-05-03T05:25:53;102130.88;;;3.83;100.00
3917;BME280;1973;50.518;7.318;2023-05-03T05:28:19;102139.47;;;3.88;100.00
3917;BME280;1973;50.518;7.318;2023-05-03T05:30:46;102132.91;;;3.91;100.00
3917;BME280;1973;50.518;7.318;2023-05-03T05:33:12;102137.19;;;3.93;100.00
3917;BME280;1973;50.518;7.318;2023-05-03T05:35:41;102143.22;;;3.97;100.00
3917;BME280;1973;50.518;7.318;2023-05-03T05:38:07;102137.22;;;4.03;100.00
3917;BME280;1973;50.518;7.318;2023-05-03T05:40:34;102135.66;;;4.10;100.00
3917;BME280;1973;50.518;7.318;2023-05-03T05:43:01;102134.09;;;4.17;100.00
3917;BME280;1973;50.518;7.318;2023-05-03T05:45:27;102135.09;;;4.26;100.00
3917;BME280;1973;50.518;7.318;2023-05-03T05:47:53;102123.19;;;4.36;100.00
3917;BME280;1973;50.518;7.318;2023-05-03T05:50:20;102136.69;;;4.48;100.00
3917;BME280;1973;50.518;7.318;2023-05-03T05:52:50;102128.94;;;4.62;100.00
3917;BME280;1973;50.518;7.318;2023-05-03T05:55:16;102126.78;;;4.75;100.00
3917;BME280;1973;50.518;7.318;2023-05-03T05:57:43;102139.97;;;4.89;100.00
3917;BME280;1973;50.518;7.318;2023-05-03T06:00:10;102135.78;;;5.05;100.00
3917;BME280;1973;50.518;7.318;2023-05-03T06:02:40;102130.03;;;5.17;100.00
3917;BME280;1973;50.518;7.318;2023-05-03T06:05:08;102130.69;;;5.29;100.00
3917;BME280;1973;50.518;7.318;2023-05-03T06:07:35;102135.09;;;5.39;100.00
3917;BME280;1973;50.518;7.318;2023-05-03T06:10:03;102131.19;;;5.52;100.00
3917;BME280;1973;50.518;7.318;2023-05-03T06:12:30;102132.00;;;5.62;100.00
3917;BME280;1973;50.518;7.318;2023-05-03T06:14:56;102137.25;;;5.73;100.00
3917;BME280;1973;50.518;7.318;2023-05-03T06:17:28;102146.28;;;5.83;100.00
3917;BME280;1973;50.518;7.318;2023-05-03T06:19:56;102140.09;;;5.91;100.00
3917;BME280;1973;50.518;7.318;2023-05-03T06:22:23;102150.97;;;6.00;100.00
3917;BME280;1973;50.518;7.318;2023-05-03T06:24:50;102149.53;;;6.06;100.00
3917;BME280;1973;50.518;7.318;2023-05-03T06:27:16;102147.41;;;6.17;100.00
3917;BME280;1973;50.518;7.318;2023-05-03T06:29:43;102140.47;;;6.23;100.00
3917;BME280;1973;50.518;7.318;2023-05-03T06:32:10;102138.97;;;6.28;100.00
3917;BME280;1973;50.518;7.318;2023-05-03T06:34:36;102142.84;;;6.35;100.00
3917;BME280;1973;50.518;7.318;2023-05-03T06:37:03;102140.34;;;6.42;100.00
3917;BME280;1973;50.518;7.318;2023-05-03T06:39:29;102138.53;;;6.51;100.00
3917;BME280;1973;50.518;7.318;2023-05-03T06:41:56;102137.59;;;6.60;100.00
3917;BME280;1973;50.518;7.318;2023-05-03T06:44:22;102131.50;;;6.66;100.00
3917;BME280;1973;50.518;7.318;2023-05-03T06:46:50;102140.50;;;6.76;100.00
3917;BME280;1973;50.518;7.318;2023-05-03T06:49:16;102128.03;;;6.81;100.00
3917;BME280;1973;50.518;7.318;2023-05-03T06:51:42;102128.25;;;6.88;100.00
3917;BME280;1973;50.518;7.318;2023-05-03T06:54:09;102124.25;;;7.00;100.00
3917;BME280;1973;50.518;7.318;2023-05-03T06:56:35;102131.03;;;7.14;100.00
3917;BME280;1973;50.518;7.318;2023-05-03T06:59:02;102119.66;;;7.26;100.00
3917;BME280;1973;50.518;7.318;2023-05-03T07:01:32;102124.66;;;7.39;100.00
3917;BME280;1973;50.518;7.318;2023-05-03T07:03:59;102120.81;;;7.50;100.00
3917;BME280;1973;50.518;7.318;2023-05-03T07:06:26;102117.81;;;7.61;100.00
3917;BME280;1973;50.518;7.318;2023-05-03T07:08:53;102124.00;;;7.71;100.00
3917;BME280;1973;50.518;7.318;2023-05-03T07:11:20;102120.09;;;7.81;100.00
3917;BME280;1973;50.518;7.318;2023-05-03T07:13:53;102122.69;;;7.91;100.00
3917;BME280;1973;50.518;7.318;2023-05-03T07:16:20;102122.59;;;8.01;100.00
3917;BME280;1973;50.518;7.318;2023-05-03T07:18:47;102125.16;;;8.10;100.00
3917;BME280;1973;50.518;7.318;2023-05-03T07:21:14;102113.88;;;8.21;100.00
3917;BME280;1973;50.518;7.318;2023-05-03T07:23:40;102119.09;;;8.32;100.00
3917;BME280;1973;50.518;7.318;2023-05-03T07:26:07;102110.53;;;8.44;100.00
3917;BME280;1973;50.518;7.318;2023-05-03T07:28:33;102111.56;;;8.51;100.00
3917;BME280;1973;50.518;7.318;2023-05-03T07:31:01;102102.66;;;8.65;100.00
3917;BME280;1973;50.518;7.318;2023-05-03T07:33:29;102098.38;;;8.78;100.00
3917;BME280;1973;50.518;7.318;2023-05-03T07:35:55;102087.91;;;8.90;100.00
3917;BME280;1973;50.518;7.318;2023-05-03T07:38:22;102092.34;;;8.99;100.00
3917;BME280;1973;50.518;7.318;2023-05-03T07:40:48;102086.16;;;9.13;100.00
3917;BME280;1973;50.518;7.318;2023-05-03T07:43:15;102086.47;;;9.26;100.00
3917;BME280;1973;50.518;7.318;2023-05-03T07:45:43;102083.34;;;9.38;100.00
3917;BME280;1973;50.518;7.318;2023-05-03T07:48:10;102095.88;;;9.48;100.00
3917;BME280;1973;50.518;7.318;2023-05-03T07:50:37;102078.13;;;9.59;100.00
3917;BME280;1973;50.518;7.318;2023-05-03T07:53:03;102081.16;;;9.72;100.00
3917;BME280;1973;50.518;7.318;2023-05-03T07:55:29;102073.41;;;9.75;100.00
3917;BME280;1973;50.518;7.318;2023-05-03T07:57:58;102071.97;;;9.88;100.00
3917;BME280;1973;50.518;7.318;2023-05-03T08:00:25;102071.41;;;10.00;100.00
3917;BME280;1973;50.518;7.318;2023-05-03T08:02:52;102067.53;;;10.09;100.00
3917;BME280;1973;50.518;7.318;2023-05-03T08:05:20;102072.66;;;10.20;100.00
3917;BME280;1973;50.518;7.318;2023-05-03T08:07:46;102058.56;;;10.23;100.00
3917;BME280;1973;50.518;7.318;2023-05-03T08:10:13;102060.91;;;10.35;100.00
3917;BME280;1973;50.518;7.318;2023-05-03T08:12:40;102060.28;;;10.47;100.00
3917;BME280;1973;50.518;7.318;2023-05-03T08:15:07;102054.16;;;10.60;100.00
3917;BME280;1973;50.518;7.318;2023-05-03T08:17:44;102057.34;;;10.71;100.00
3917;BME280;1973;50.518;7.318;2023-05-03T08:20:11;102048.81;;;10.81;100.00
3917;BME280;1973;50.518;7.318;2023-05-03T08:22:38;102050.56;;;10.97;100.00
3917;BME280;1973;50.518;7.318;2023-05-03T08:25:06;102046.84;;;11.04;100.00
3917;BME280;1973;50.518;7.318;2023-05-03T08:27:33;102047.53;;;11.21;100.00
3917;BME280;1973;50.518;7.318;2023-05-03T08:29:59;102041.38;;;11.34;100.00
3917;BME280;1973;50.518;7.318;2023-05-03T08:32:27;102036.03;;;11.47;100.00
3917;BME280;1973;50.518;7.318;2023-05-03T08:34:54;102039.81;;;11.46;99.00
3917;BME280;1973;50.518;7.318;2023-05-03T08:37:22;102043.44;;;11.61;99.20
3917;BME280;1973;50.518;7.318;2023-05-03T08:39:48;102033.34;;;11.68;97.05
3917;BME280;1973;50.518;7.318;2023-05-03T08:42:15;102036.69;;;11.78;95.88
3917;BME280;1973;50.518;7.318;2023-05-03T08:44:46;102031.44;;;11.83;85.27
3917;BME280;1973;50.518;7.318;2023-05-03T08:47:16;102033.84;;;11.71;88.05
3917;BME280;1973;50.518;7.318;2023-05-03T08:49:43;102030.03;;;11.73;86.91
3917;BME280;1973;50.518;7.318;2023-05-03T08:52:11;102030.69;;;11.89;87.01
3917;BME280;1973;50.518;7.318;2023-05-03T08:54:39;102024.25;;;12.03;87.37
3917;BME280;1973;50.518;7.318;2023-05-03T08:57:10;102020.59;;;12.17;87.77
3917;BME280;1973;50.518;7.318;2023-05-03T08:59:47;102029.84;;;12.31;81.03
3917;BME280;1973;50.518;7.318;2023-05-03T09:02:14;102028.06;;;12.24;80.31
3917;BME280;1973;50.518;7.318;2023-05-03T09:04:41;102016.38;;;12.22;77.79
3917;BME280;1973;50.518;7.318;2023-05-03T09:07:09;102003.03;;;12.25;77.14
3917;BME280;1973;50.518;7.318;2023-05-03T09:09:36;102005.72;;;12.40;74.40
3917;BME280;1973;50.518;7.318;2023-05-03T09:12:03;102001.03;;;12.61;74.59
3917;BME280;1973;50.518;7.318;2023-05-03T09:14:30;102003.53;;;12.78;74.50
3917;BME280;1973;50.518;7.318;2023-05-03T09:17:17;102001.53;;;12.93;70.87
3917;BME280;1973;50.518;7.318;2023-05-03T09:19:56;102000.31;;;13.08;67.74
3917;BME280;1973;50.518;7.318;2023-05-03T09:22:30;102005.75;;;13.16;66.37
3917;BME280;1973;50.518;7.318;2023-05-03T09:24:58;101999.19;;;13.24;68.76
3917;BME280;1973;50.518;7.318;2023-05-03T09:27:26;101999.03;;;13.32;66.30
3917;BME280;1973;50.518;7.318;2023-05-03T09:29:53;101990.72;;;13.26;64.77
3917;BME280;1973;50.518;7.318;2023-05-03T09:32:20;101985.66;;;13.36;64.10
3917;BME280;1973;50.518;7.318;2023-05-03T09:34:51;101984.91;;;13.55;65.91
3917;BME280;1973;50.518;7.318;2023-05-03T09:37:36;101977.13;;;13.78;68.72
3917;BME280;1973;50.518;7.318;2023-05-03T09:40:04;101987.28;;;13.71;61.47
3917;BME280;1973;50.518;7.318;2023-05-03T09:42:33;101981.56;;;13.73;61.32
3917;BME280;1973;50.518;7.318;2023-05-03T09:44:59;101985.47;;;13.91;60.83
3917;BME280;1973;50.518;7.318;2023-05-03T09:47:26;101978.19;;;13.77;58.63
3917;BME280;1973;50.518;7.318;2023-05-03T09:49:57;101980.38;;;14.01;59.03
3917;BME280;1973;50.518;7.318;2023-05-03T09:52:28;101969.13;;;14.23;57.42
3917;BME280;1973;50.518;7.318;2023-05-03T09:54:56;101967.84;;;14.32;58.62
3917;BME280;1973;50.518;7.318;2023-05-03T09:57:22;101967.88;;;14.45;57.60
3917;BME280;1973;50.518;7.318;2023-05-03T09:59:49;101959.59;;;14.58;56.61
3917;BME280;1973;50.518;7.318;2023-05-03T10:02:16;101962.16;;;14.59;56.15
3917;BME280;1973;50.518;7.318;2023-05-03T10:04:48;101954.88;;;14.72;53.30
3917;BME280;1973;50.518;7.318;2023-05-03T10:07:17;101955.31;;;14.88;55.40
3917;BME280;1973;50.518;7.318;2023-05-03T10:09:46;101955.09;;;14.77;52.60
3917;BME280;1973;50.518;7.318;2023-05-03T10:12:13;101952.31;;;14.83;53.21
3917;BME280;1973;50.518;7.318;2023-05-03T10:14:47;101950.56;;;15.08;52.45
3917;BME280;1973;50.518;7.318;2023-05-03T10:17:26;101947.53;;;15.30;52.21
3917;BME280;1973;50.518;7.318;2023-05-03T10:20:23;101938.03;;;15.57;53.43
3917;BME280;1973;50.518;7.318;2023-05-03T10:25:31;101941.31;;;15.85;51.70
3917;BME280;1973;50.518;7.318;2023-05-03T10:28:08;101924.13;;;16.01;50.83
3917;BME280;1973;50.518;7.318;2023-05-03T10:30:36;101924.59;;;16.23;52.15
3917;BME280;1973;50.518;7.318;2023-05-03T10:35:40;101927.94;;;16.63;50.21
3917;BME280;1973;50.518;7.318;2023-05-03T10:38:14;101919.19;;;16.84;47.00
3917;BME280;1973;50.518;7.318;2023-05-03T10:40:42;101921.97;;;16.84;48.47
3917;BME280;1973;50.518;7.318;2023-05-03T10:43:44;101920.59;;;17.12;46.69
3917;BME280;1973;50.518;7.318;2023-05-03T10:46:29;101915.78;;;17.00;43.00
3917;BME280;1973;50.518;7.318;2023-05-03T10:49:17;101905.28;;;17.02;42.49
3917;BME280;1973;50.518;7.318;2023-05-03T10:51:44;101902.34;;;16.97;45.82
3917;BME280;1973;50.518;7.318;2023-05-03T10:54:11;101895.41;;;17.07;46.04
3917;BME280;1973;50.518;7.318;2023-05-03T10:56:46;101880.63;;;17.24;45.21
3917;BME280;1973;50.518;7.318;2023-05-03T10:59:13;101872.47;;;17.41;47.04
3917;BME280;1973;50.518;7.318;2023-05-03T11:01:41;101877.59;;;17.62;47.15
3917;BME280;1973;50.518;7.318;2023-05-03T11:04:20;101876.03;;;17.66;44.22
3917;BME280;1973;50.518;7.318;2023-05-03T11:06:50;101879.41;;;17.68;44.33
3917;BME280;1973;50.518;7.318;2023-05-03T11:09:30;101891.78;;;17.72;41.86
3917;BME280;1973;50.518;7.318;2023-05-03T11:11:57;101870.31;;;17.61;42.82
3917;BME280;1973;50.518;7.318;2023-05-03T11:14:24;101871.63;;;17.88;43.30
3917;BME280;1973;50.518;7.318;2023-05-03T11:16:50;101866.19;;;17.93;43.42
3917;BME280;1973;50.518;7.318;2023-05-03T11:19:17;101850.09;;;17.95;42.66
3917;BME280;1973;50.518;7.318;2023-05-03T11:21:44;101851.25;;;17.76;41.89
3917;BME280;1973;50.518;7.318;2023-05-03T11:24:12;101852.84;;;17.84;41.87
3917;BME280;1973;50.518;7.318;2023-05-03T11:26:39;101848.28;;;17.71;41.24
3917;BME280;1973;50.518;7.318;2023-05-03T11:29:08;101845.66;;;17.76;40.16
3917;BME280;1973;50.518;7.318;2023-05-03T11:31:35;101836.41;;;18.06;41.13
3917;BME280;1973;50.518;7.318;2023-05-03T11:34:02;101829.38;;;18.26;40.17
3917;BME280;1973;50.518;7.318;2023-05-03T11:36:29;101835.31;;;18.07;39.78
3917;BME280;1973;50.518;7.318;2023-05-03T11:38:56;101835.34;;;18.41;39.58
3917;BME280;1973;50.518;7.318;2023-05-03T11:41:22;101841.09;;;18.58;39.91
3917;BME280;1973;50.518;7.318;2023-05-03T11:43:49;101834.75;;;18.74;39.15
3917;BME280;1973;50.518;7.318;2023-05-03T11:46:32;101838.00;;;18.94;38.11
3917;BME280;1973;50.518;7.318;2023-05-03T11:49:00;101834.41;;;18.59;39.38
3917;BME280;1973;50.518;7.318;2023-05-03T11:51:28;101832.78;;;18.98;39.25
3917;BME280;1973;50.518;7.318;2023-05-03T11:53:55;101843.84;;;18.81;39.04
3917;BME280;1973;50.518;7.318;2023-05-03T11:56:22;101837.41;;;18.92;38.85
3917;BME280;1973;50.518;7.318;2023-05-03T11:58:56;101833.81;;;18.69;36.74
3917;BME280;1973;50.518;7.318;2023-05-03T12:01:25;101826.72;;;18.89;37.78
3917;BME280;1973;50.518;7.318;2023-05-03T12:03:53;101819.47;;;19.28;37.84
3917;BME280;1973;50.518;7.318;2023-05-03T12:06:21;101828.03;;;19.50;36.88
3917;BME280;1973;50.518;7.318;2023-05-03T12:08:49;101811.34;;;19.83;36.62
3917;BME280;1973;50.518;7.318;2023-05-03T12:11:16;101804.41;;;20.03;36.64
3917;BME280;1973;50.518;7.318;2023-05-03T12:13:43;101798.25;;;20.34;37.03
3917;BME280;1973;50.518;7.318;2023-05-03T12:16:10;101792.13;;;20.37;36.23
3917;BME280;1973;50.518;7.318;2023-05-03T12:18:49;101799.00;;;20.46;34.63
3917;BME280;1973;50.518;7.318;2023-05-03T12:21:21;101794.63;;;20.55;34.25
3917;BME280;1973;50.518;7.318;2023-05-03T12:23:52;101798.72;;;20.48;35.18
3917;BME280;1973;50.518;7.318;2023-05-03T12:26:22;101792.91;;;20.71;35.12
3917;BME280;1973;50.518;7.318;2023-05-03T12:28:50;101775.25;;;20.70;34.95
3917;BME280;1973;50.518;7.318;2023-05-03T12:31:21;101776.25;;;21.03;34.02
3917;BME280;1973;50.518;7.318;2023-05-03T12:33:48;101766.09;;;20.97;33.82
3917;BME280;1973;50.518;7.318;2023-05-03T12:36:35;101767.84;;;21.03;33.81
3917;BME280;1973;50.518;7.318;2023-05-03T12:39:03;101765.66;;;21.05;34.22
3917;BME280;1973;50.518;7.318;2023-05-03T12:41:35;101757.47;;;21.47;35.67
3917;BME280;1973;50.518;7.318;2023-05-03T12:44:04;101754.16;;;21.55;34.70
3917;BME280;1973;50.518;7.318;2023-05-03T12:46:35;101751.09;;;21.83;34.27
3917;BME280;1973;50.518;7.318;2023-05-03T12:49:02;101750.25;;;21.82;33.39
3917;BME280;1973;50.518;7.318;2023-05-03T12:51:33;101744.31;;;22.06;33.45
3917;BME280;1973;50.518;7.318;2023-05-03T12:53:59;101736.44;;;22.08;33.62
3917;BME280;1973;50.518;7.318;2023-05-03T12:56:27;101738.72;;;22.11;32.95
3917;BME280;1973;50.518;7.318;2023-05-03T12:58:58;101742.13;;;22.18;33.36
3917;BME280;1973;50.518;7.318;2023-05-03T13:01:44;101752.19;;;22.14;32.61
3917;BME280;1973;50.518;7.318;2023-05-03T13:04:31;101731.38;;;22.05;32.46
3917;BME280;1973;50.518;7.318;2023-05-03T13:07:19;101729.28;;;21.90;32.06
3917;BME280;1973;50.518;7.318;2023-05-03T13:09:55;101730.91;;;22.18;31.54
3917;BME280;1973;50.518;7.318;2023-05-03T13:12:25;101723.28;;;22.50;32.26
3917;BME280;1973;50.518;7.318;2023-05-03T13:14:53;101732.59;;;22.66;31.19
3917;BME280;1973;50.518;7.318;2023-05-03T13:17:20;101716.66;;;22.76;31.47
3917;BME280;1973;50.518;7.318;2023-05-03T13:19:49;101713.06;;;22.86;30.97
3917;BME280;1973;50.518;7.318;2023-05-03T13:22:16;101693.78;;;23.20;30.93
3917;BME280;1973;50.518;7.318;2023-05-03T13:24:44;101687.34;;;23.40;32.35
3917;BME280;1973;50.518;7.318;2023-05-03T13:27:12;101684.31;;;23.66;32.09
3917;BME280;1973;50.518;7.318;2023-05-03T13:29:39;101686.00;;;23.83;32.07
3917;BME280;1973;50.518;7.318;2023-05-03T13:32:06;101668.78;;;24.09;31.34
3917;BME280;1973;50.518;7.318;2023-05-03T13:34:34;101673.00;;;24.07;31.47
3917;BME280;1973;50.518;7.318;2023-05-03T13:37:01;101670.22;;;23.92;30.15